sensor_id;sensor_type;location;lat;lon;timestamp;P1;durP1;ratioP1;P2;durP2;ratioP2
39930;SDS011;26635;-35.248;149.138;2023-05-29T00:01:49;0.65;;;0.10;;
39930;SDS011;26635;-35.248;149.138;2023-05-29T00:04:22;1.23;;;0.15;;
39930;SDS011;26635;-35.248;149.138;2023-05-29T00:06:52;1.20;;;0.65;;
39930;SDS011;26635;-35.248;149.138;2023-05-29T00:09:24;1.02;;;0.30;;
39930;SDS011;26635;-35.248;149.138;2023-05-29T00:11:54;1.05;;;0.45;;
39930;SDS011;26635;-35.248;149.138;2023-05-29T00:14:25;1.17;;;0.50;;
39930;SDS011;26635;-35.248;149.138;2023-05-29T00:16:55;1.63;;;0.47;;
39930;SDS011;26635;-35.248;149.138;2023-05-29T00:19:26;1.45;;;0.20;;
39930;SDS011;26635;-35.248;149.138;2023-05-29T00:21:56;4.18;;;0.38;;
39930;SDS011;26635;-35.248;149.138;2023-05-29T00:24:27;2.75;;;0.20;;
39930;SDS011;26635;-35.248;149.138;2023-05-29T00:26:57;0.68;;;0.20;;
39930;SDS011;26635;-35.248;149.138;2023-05-29T00:29:28;1.77;;;0.20;;
39930;SDS011;26635;-35.248;149.138;2023-05-29T00:31:59;2.80;;;0.40;;
39930;SDS011;26635;-35.248;149.138;2023-05-29T00:34:31;1.48;;;0.20;;
39930;SDS011;26635;-35.248;149.138;2023-05-29T00:37:01;4.32;;;0.65;;
39930;SDS011;26635;-35.248;149.138;2023-05-29T00:39:32;1.98;;;0.22;;
39930;SDS011;26635;-35.248;149.138;2023-05-29T00:42:03;2.65;;;0.25;;
39930;SDS011;26635;-35.248;149.138;2023-05-29T00:44:34;1.42;;;0.20;;
39930;SDS011;26635;-35.248;149.138;2023-05-29T00:47:08;2.42;;;0.30;;
39930;SDS011;26635;-35.248;149.138;2023-05-29T00:49:39;2.15;;;0.20;;
39930;SDS011;26635;-35.248;149.138;2023-05-29T00:52:10;1.10;;;0.30;;
39930;SDS011;26635;-35.248;149.138;2023-05-29T00:54:43;0.73;;;0.28;;
39930;SDS011;26635;-35.248;149.138;2023-05-29T00:57:18;1.10;;;0.20;;
39930;SDS011;26635;-35.248;149.138;2023-05-29T00:59:50;1.92;;;0.20;;
39930;SDS011;26635;-35.248;149.138;2023-05-29T01:02:21;0.80;;;0.13;;
39930;SDS011;26635;-35.248;149.138;2023-05-29T01:04:52;1.23;;;0.20;;
39930;SDS011;26635;-35.248;149.138;2023-05-29T01:07:23;1.67;;;0.40;;
39930;SDS011;26635;-35.248;149.138;2023-05-29T01:09:54;0.28;;;0.05;;
39930;SDS011;26635;-35.248;149.138;2023-05-29T01:18:08;2.42;;;0.25;;
39930;SDS011;26635;-35.248;149.138;2023-05-29T01:26:45;0.63;;;0.17;;
39930;SDS011;26635;-35.248;149.138;2023-05-29T01:29:24;1.73;;;0.20;;
39930;SDS011;26635;-35.248;149.138;2023-05-29T01:31:59;1.80;;;0.28;;
39930;SDS011;26635;-35.248;149.138;2023-05-29T01:34:31;0.77;;;0.10;;
39930;SDS011;26635;-35.248;149.138;2023-05-29T01:37:01;1.33;;;0.43;;
39930;SDS011;26635;-35.248;149.138;2023-05-29T01:39:31;1.55;;;0.25;;
39930;SDS011;26635;-35.248;149.138;2023-05-29T01:42:04;1.95;;;0.20;;
39930;SDS011;26635;-35.248;149.138;2023-05-29T01:44:37;1.10;;;0.38;;
39930;SDS011;26635;-35.248;149.138;2023-05-29T01:47:09;1.73;;;0.30;;
39930;SDS011;26635;-35.248;149.138;2023-05-29T01:49:41;1.10;;;0.20;;
39930;SDS011;26635;-35.248;149.138;2023-05-29T01:52:12;1.20;;;0.25;;
39930;SDS011;26635;-35.248;149.138;2023-05-29T01:54:43;0.65;;;0.00;;
39930;SDS011;26635;-35.248;149.138;2023-05-29T01:57:14;1.27;;;0.15;;
39930;SDS011;26635;-35.248;149.138;2023-05-29T01:59:46;2.45;;;0.20;;
39930;SDS011;26635;-35.248;149.138;2023-05-29T02:02:18;1.55;;;0.20;;
39930;SDS011;26635;-35.248;149.138;2023-05-29T02:04:54;1.10;;;0.10;;
39930;SDS011;26635;-35.248;149.138;2023-05-29T02:07:25;1.58;;;0.20;;
39930;SDS011;26635;-35.248;149.138;2023-05-29T02:09:55;0.80;;;0.30;;
39930;SDS011;26635;-35.248;149.138;2023-05-29T02:12:32;0.40;;;0.20;;
39930;SDS011;26635;-35.248;149.138;2023-05-29T02:15:03;1.80;;;0.17;;
39930;SDS011;26635;-35.248;149.138;2023-05-29T02:17:44;1.05;;;0.10;;
39930;SDS011;26635;-35.248;149.138;2023-05-29T02:20:16;2.20;;;0.45;;
39930;SDS011;26635;-35.248;149.138;2023-05-29T02:22:47;1.50;;;0.10;;
39930;SDS011;26635;-35.248;149.138;2023-05-29T02:25:20;1.77;;;0.40;;
39930;SDS011;26635;-35.248;149.138;2023-05-29T02:27:50;1.00;;;0.20;;
39930;SDS011;26635;-35.248;149.138;2023-05-29T02:30:21;0.95;;;0.28;;
39930;SDS011;26635;-35.248;149.138;2023-05-29T02:32:52;1.65;;;0.10;;
39930;SDS011;26635;-35.248;149.138;2023-05-29T02:35:22;1.33;;;0.30;;
39930;SDS011;26635;-35.248;149.138;2023-05-29T02:37:54;0.90;;;0.20;;
39930;SDS011;26635;-35.248;149.138;2023-05-29T02:40:25;0.88;;;0.10;;
39930;SDS011;26635;-35.248;149.138;2023-05-29T02:42:55;0.35;;;0.10;;
39930;SDS011;26635;-35.248;149.138;2023-05-29T02:45:26;0.28;;;0.10;;
39930;SDS011;26635;-35.248;149.138;2023-05-29T02:47:56;2.03;;;0.13;;
39930;SDS011;26635;-35.248;149.138;2023-05-29T02:50:27;2.35;;;0.30;;
39930;SDS011;26635;-35.248;149.138;2023-05-29T02:52:58;1.33;;;0.30;;
39930;SDS011;26635;-35.248;149.138;2023-05-29T02:55:29;1.00;;;0.20;;
39930;SDS011;26635;-35.248;149.138;2023-05-29T02:58:04;0.75;;;0.20;;
39930;SDS011;26635;-35.248;149.138;2023-05-29T03:00:34;0.93;;;0.10;;
39930;SDS011;26635;-35.248;149.138;2023-05-29T03:03:05;1.52;;;0.20;;
39930;SDS011;26635;-35.248;149.138;2023-05-29T03:05:36;1.80;;;0.10;;
39930;SDS011;26635;-35.248;149.138;2023-05-29T03:08:06;1.95;;;0.52;;
39930;SDS011;26635;-35.248;149.138;2023-05-29T03:10:37;1.98;;;0.17;;
39930;SDS011;26635;-35.248;149.138;2023-05-29T03:13:07;1.75;;;0.20;;
39930;SDS011;26635;-35.248;149.138;2023-05-29T03:15:38;0.57;;;0.30;;
39930;SDS011;26635;-35.248;149.138;2023-05-29T03:18:09;2.20;;;0.75;;
39930;SDS011;26635;-35.248;149.138;2023-05-29T03:20:40;2.25;;;0.85;;
39930;SDS011;26635;-35.248;149.138;2023-05-29T03:23:12;0.98;;;0.20;;
39930;SDS011;26635;-35.248;149.138;2023-05-29T03:25:43;1.15;;;0.20;;
39930;SDS011;26635;-35.248;149.138;2023-05-29T03:28:15;1.27;;;0.40;;
39930;SDS011;26635;-35.248;149.138;2023-05-29T03:30:45;1.55;;;0.35;;
39930;SDS011;26635;-35.248;149.138;2023-05-29T03:33:15;1.70;;;0.20;;
39930;SDS011;26635;-35.248;149.138;2023-05-29T03:35:46;0.93;;;0.20;;
39930;SDS011;26635;-35.248;149.138;2023-05-29T03:38:16;1.40;;;0.20;;
39930;SDS011;26635;-35.248;149.138;2023-05-29T03:40:53;2.15;;;1.10;;
39930;SDS011;26635;-35.248;149.138;2023-05-29T03:43:24;1.48;;;0.30;;
39930;SDS011;26635;-35.248;149.138;2023-05-29T03:45:54;1.95;;;0.30;;
39930;SDS011;26635;-35.248;149.138;2023-05-29T03:48:25;1.88;;;0.30;;
39930;SDS011;26635;-35.248;149.138;2023-05-29T03:50:56;2.78;;;0.30;;
39930;SDS011;26635;-35.248;149.138;2023-05-29T03:53:26;2.97;;;0.30;;
39930;SDS011;26635;-35.248;149.138;2023-05-29T03:55:56;2.40;;;0.22;;
39930;SDS011;26635;-35.248;149.138;2023-05-29T03:58:27;1.63;;;0.70;;
39930;SDS011;26635;-35.248;149.138;2023-05-29T04:00:58;2.72;;;0.80;;
39930;SDS011;26635;-35.248;149.138;2023-05-29T04:03:28;1.70;;;0.15;;
39930;SDS011;26635;-35.248;149.138;2023-05-29T04:06:01;0.82;;;0.35;;
39930;SDS011;26635;-35.248;149.138;2023-05-29T04:08:31;1.80;;;0.30;;
39930;SDS011;26635;-35.248;149.138;2023-05-29T04:11:02;1.45;;;0.20;;
39930;SDS011;26635;-35.248;149.138;2023-05-29T04:13:32;2.40;;;0.40;;
39930;SDS011;26635;-35.248;149.138;2023-05-29T04:16:03;1.65;;;0.20;;
39930;SDS011;26635;-35.248;149.138;2023-05-29T04:18:33;1.98;;;0.22;;
39930;SDS011;26635;-35.248;149.138;2023-05-29T04:21:05;3.08;;;0.70;;
39930;SDS011;26635;-35.248;149.138;2023-05-29T04:23:36;2.75;;;0.38;;
39930;SDS011;26635;-35.248;149.138;2023-05-29T04:26:06;1.23;;;0.30;;
39930;SDS011;26635;-35.248;149.138;2023-05-29T04:28:37;2.25;;;0.45;;
39930;SDS011;26635;-35.248;149.138;2023-05-29T04:31:07;2.08;;;0.30;;
39930;SDS011;26635;-35.248;149.138;2023-05-29T04:33:43;2.22;;;0.30;;
39930;SDS011;26635;-35.248;149.138;2023-05-29T04:36:13;4.20;;;0.50;;
39930;SDS011;26635;-35.248;149.138;2023-05-29T04:38:45;1.70;;;0.40;;
39930;SDS011;26635;-35.248;149.138;2023-05-29T04:41:16;1.10;;;0.30;;
39930;SDS011;26635;-35.248;149.138;2023-05-29T04:43:47;2.70;;;0.63;;
39930;SDS011;26635;-35.248;149.138;2023-05-29T04:46:20;2.35;;;0.30;;
39930;SDS011;26635;-35.248;149.138;2023-05-29T04:48:51;2.20;;;0.35;;
39930;SDS011;26635;-35.248;149.138;2023-05-29T04:51:25;1.75;;;0.60;;
39930;SDS011;26635;-35.248;149.138;2023-05-29T04:53:57;2.42;;;1.05;;
39930;SDS011;26635;-35.248;149.138;2023-05-29T04:56:27;1.15;;;0.35;;
39930;SDS011;26635;-35.248;149.138;2023-05-29T04:58:58;0.22;;;0.20;;
39930;SDS011;26635;-35.248;149.138;2023-05-29T05:01:28;1.48;;;0.20;;
39930;SDS011;26635;-35.248;149.138;2023-05-29T05:04:02;0.30;;;0.20;;
39930;SDS011;26635;-35.248;149.138;2023-05-29T05:06:32;2.22;;;0.22;;
39930;SDS011;26635;-35.248;149.138;2023-05-29T05:09:03;0.93;;;0.60;;
39930;SDS011;26635;-35.248;149.138;2023-05-29T05:11:33;1.25;;;0.40;;
39930;SDS011;26635;-35.248;149.138;2023-05-29T05:14:04;1.55;;;0.32;;
39930;SDS011;26635;-35.248;149.138;2023-05-29T05:16:36;2.28;;;0.38;;
39930;SDS011;26635;-35.248;149.138;2023-05-29T05:19:07;1.20;;;0.30;;
39930;SDS011;26635;-35.248;149.138;2023-05-29T05:21:38;1.85;;;0.20;;
39930;SDS011;26635;-35.248;149.138;2023-05-29T05:24:11;1.20;;;0.20;;
39930;SDS011;26635;-35.248;149.138;2023-05-29T05:26:43;1.25;;;0.55;;
39930;SDS011;26635;-35.248;149.138;2023-05-29T05:29:14;3.33;;;0.50;;
39930;SDS011;26635;-35.248;149.138;2023-05-29T05:31:45;1.42;;;0.90;;
39930;SDS011;26635;-35.248;149.138;2023-05-29T05:34:16;1.98;;;0.32;;
39930;SDS011;26635;-35.248;149.138;2023-05-29T05:36:49;2.53;;;0.20;;
39930;SDS011;26635;-35.248;149.138;2023-05-29T05:39:19;2.20;;;0.20;;
39930;SDS011;26635;-35.248;149.138;2023-05-29T05:41:52;1.17;;;0.30;;
39930;SDS011;26635;-35.248;149.138;2023-05-29T05:44:25;2.80;;;0.52;;
39930;SDS011;26635;-35.248;149.138;2023-05-29T05:46:56;1.85;;;0.57;;
39930;SDS011;26635;-35.248;149.138;2023-05-29T05:49:26;2.90;;;0.50;;
39930;SDS011;26635;-35.248;149.138;2023-05-29T05:51:57;3.00;;;0.57;;
39930;SDS011;26635;-35.248;149.138;2023-05-29T05:54:27;0.75;;;0.40;;
39930;SDS011;26635;-35.248;149.138;2023-05-29T05:56:58;1.38;;;0.47;;
39930;SDS011;26635;-35.248;149.138;2023-05-29T05:59:29;2.08;;;0.93;;
39930;SDS011;26635;-35.248;149.138;2023-05-29T06:01:59;4.25;;;0.57;;
39930;SDS011;26635;-35.248;149.138;2023-05-29T06:04:34;1.08;;;0.35;;
39930;SDS011;26635;-35.248;149.138;2023-05-29T06:07:05;2.38;;;0.52;;
39930;SDS011;26635;-35.248;149.138;2023-05-29T06:09:37;2.33;;;0.60;;
39930;SDS011;26635;-35.248;149.138;2023-05-29T06:12:08;2.05;;;0.30;;
39930;SDS011;26635;-35.248;149.138;2023-05-29T06:14:40;2.58;;;0.45;;
39930;SDS011;26635;-35.248;149.138;2023-05-29T06:17:10;2.25;;;0.30;;
39930;SDS011;26635;-35.248;149.138;2023-05-29T06:19:43;1.35;;;0.40;;
39930;SDS011;26635;-35.248;149.138;2023-05-29T06:22:16;2.30;;;0.40;;
39930;SDS011;26635;-35.248;149.138;2023-05-29T06:24:46;2.90;;;1.25;;
39930;SDS011;26635;-35.248;149.138;2023-05-29T06:27:17;0.80;;;0.30;;
39930;SDS011;26635;-35.248;149.138;2023-05-29T06:29:48;1.05;;;0.40;;
39930;SDS011;26635;-35.248;149.138;2023-05-29T06:32:19;2.72;;;0.38;;
39930;SDS011;26635;-35.248;149.138;2023-05-29T06:34:50;2.80;;;1.05;;
39930;SDS011;26635;-35.248;149.138;2023-05-29T06:37:21;2.47;;;0.30;;
39930;SDS011;26635;-35.248;149.138;2023-05-29T06:39:51;3.90;;;0.30;;
39930;SDS011;26635;-35.248;149.138;2023-05-29T06:42:21;1.42;;;0.25;;
39930;SDS011;26635;-35.248;149.138;2023-05-29T06:44:52;1.65;;;0.35;;
39930;SDS011;26635;-35.248;149.138;2023-05-29T06:47:22;1.08;;;0.30;;
39930;SDS011;26635;-35.248;149.138;2023-05-29T06:49:53;2.28;;;0.50;;
39930;SDS011;26635;-35.248;149.138;2023-05-29T06:52:23;1.25;;;0.45;;
39930;SDS011;26635;-35.248;149.138;2023-05-29T06:54:54;1.48;;;0.25;;
39930;SDS011;26635;-35.248;149.138;2023-05-29T06:57:25;1.38;;;0.60;;
39930;SDS011;26635;-35.248;149.138;2023-05-29T06:59:56;1.13;;;0.40;;
39930;SDS011;26635;-35.248;149.138;2023-05-29T07:02:27;0.60;;;0.30;;
39930;SDS011;26635;-35.248;149.138;2023-05-29T07:04:57;1.30;;;0.47;;
39930;SDS011;26635;-35.248;149.138;2023-05-29T07:07:28;1.00;;;0.40;;
39930;SDS011;26635;-35.248;149.138;2023-05-29T07:09:59;1.80;;;0.50;;
39930;SDS011;26635;-35.248;149.138;2023-05-29T07:12:29;1.60;;;0.70;;
39930;SDS011;26635;-35.248;149.138;2023-05-29T07:15:00;1.83;;;0.50;;
39930;SDS011;26635;-35.248;149.138;2023-05-29T07:17:31;3.50;;;1.42;;
39930;SDS011;26635;-35.248;149.138;2023-05-29T07:20:02;2.72;;;0.30;;
39930;SDS011;26635;-35.248;149.138;2023-05-29T07:22:36;2.08;;;0.35;;
39930;SDS011;26635;-35.248;149.138;2023-05-29T07:25:06;3.88;;;1.17;;
39930;SDS011;26635;-35.248;149.138;2023-05-29T07:27:37;3.35;;;1.63;;
39930;SDS011;26635;-35.248;149.138;2023-05-29T07:30:08;1.20;;;0.45;;
39930;SDS011;26635;-35.248;149.138;2023-05-29T07:32:41;5.30;;;0.85;;
39930;SDS011;26635;-35.248;149.138;2023-05-29T07:35:13;3.15;;;1.05;;
39930;SDS011;26635;-35.248;149.138;2023-05-29T07:37:44;2.58;;;0.60;;
39930;SDS011;26635;-35.248;149.138;2023-05-29T07:40:16;3.13;;;0.63;;
39930;SDS011;26635;-35.248;149.138;2023-05-29T07:42:47;1.92;;;0.52;;
39930;SDS011;26635;-35.248;149.138;2023-05-29T07:45:17;2.95;;;1.10;;
39930;SDS011;26635;-35.248;149.138;2023-05-29T07:47:47;2.38;;;0.80;;
39930;SDS011;26635;-35.248;149.138;2023-05-29T07:50:18;1.38;;;0.70;;
39930;SDS011;26635;-35.248;149.138;2023-05-29T07:52:48;3.78;;;0.88;;
39930;SDS011;26635;-35.248;149.138;2023-05-29T07:55:19;4.30;;;1.38;;
39930;SDS011;26635;-35.248;149.138;2023-05-29T07:57:50;3.40;;;0.70;;
39930;SDS011;26635;-35.248;149.138;2023-05-29T08:00:22;5.75;;;0.95;;
39930;SDS011;26635;-35.248;149.138;2023-05-29T08:02:56;5.30;;;1.83;;
39930;SDS011;26635;-35.248;149.138;2023-05-29T08:05:33;5.88;;;1.42;;
39930;SDS011;26635;-35.248;149.138;2023-05-29T08:08:04;3.95;;;1.00;;
39930;SDS011;26635;-35.248;149.138;2023-05-29T08:10:41;2.95;;;1.02;;
39930;SDS011;26635;-35.248;149.138;2023-05-29T08:13:12;2.72;;;1.10;;
39930;SDS011;26635;-35.248;149.138;2023-05-29T08:15:42;2.50;;;1.23;;
39930;SDS011;26635;-35.248;149.138;2023-05-29T08:18:14;3.60;;;1.30;;
39930;SDS011;26635;-35.248;149.138;2023-05-29T08:20:46;3.40;;;1.10;;
39930;SDS011;26635;-35.248;149.138;2023-05-29T08:23:17;2.67;;;0.70;;
39930;SDS011;26635;-35.248;149.138;2023-05-29T08:25:50;3.22;;;0.70;;
39930;SDS011;26635;-35.248;149.138;2023-05-29T08:28:23;1.98;;;0.60;;
39930;SDS011;26635;-35.248;149.138;2023-05-29T08:30:56;2.75;;;0.90;;
39930;SDS011;26635;-35.248;149.138;2023-05-29T08:33:28;2.20;;;0.80;;
39930;SDS011;26635;-35.248;149.138;2023-05-29T08:35:59;7.05;;;2.33;;
39930;SDS011;26635;-35.248;149.138;2023-05-29T08:38:31;6.75;;;2.83;;
39930;SDS011;26635;-35.248;149.138;2023-05-29T08:41:01;8.68;;;1.48;;
39930;SDS011;26635;-35.248;149.138;2023-05-29T08:43:35;4.57;;;1.48;;
39930;SDS011;26635;-35.248;149.138;2023-05-29T08:46:07;5.38;;;0.88;;
39930;SDS011;26635;-35.248;149.138;2023-05-29T08:48:40;3.20;;;0.80;;
39930;SDS011;26635;-35.248;149.138;2023-05-29T08:51:20;3.88;;;1.60;;
39930;SDS011;26635;-35.248;149.138;2023-05-29T08:53:52;3.30;;;1.65;;
39930;SDS011;26635;-35.248;149.138;2023-05-29T08:56:23;3.55;;;1.13;;
39930;SDS011;26635;-35.248;149.138;2023-05-29T08:59:01;2.88;;;0.90;;
39930;SDS011;26635;-35.248;149.138;2023-05-29T09:01:34;3.22;;;0.70;;
39930;SDS011;26635;-35.248;149.138;2023-05-29T09:04:08;2.05;;;1.10;;
39930;SDS011;26635;-35.248;149.138;2023-05-29T09:06:39;1.83;;;0.40;;
39930;SDS011;26635;-35.248;149.138;2023-05-29T09:09:12;1.67;;;0.73;;
39930;SDS011;26635;-35.248;149.138;2023-05-29T09:11:43;2.20;;;0.85;;
39930;SDS011;26635;-35.248;149.138;2023-05-29T09:17:04;2.13;;;0.80;;
39930;SDS011;26635;-35.248;149.138;2023-05-29T09:19:38;2.78;;;1.23;;
39930;SDS011;26635;-35.248;149.138;2023-05-29T09:22:10;7.28;;;1.45;;
39930;SDS011;26635;-35.248;149.138;2023-05-29T09:24:47;5.13;;;1.08;;
39930;SDS011;26635;-35.248;149.138;2023-05-29T09:27:19;4.47;;;1.67;;
39930;SDS011;26635;-35.248;149.138;2023-05-29T09:29:51;4.65;;;1.48;;
39930;SDS011;26635;-35.248;149.138;2023-05-29T09:32:22;3.10;;;1.80;;
39930;SDS011;26635;-35.248;149.138;2023-05-29T09:34:53;2.67;;;0.90;;
39930;SDS011;26635;-35.248;149.138;2023-05-29T09:37:27;2.03;;;0.82;;
39930;SDS011;26635;-35.248;149.138;2023-05-29T09:39:57;4.40;;;1.23;;
39930;SDS011;26635;-35.248;149.138;2023-05-29T09:42:29;2.53;;;0.90;;
39930;SDS011;26635;-35.248;149.138;2023-05-29T09:45:00;3.45;;;1.15;;
39930;SDS011;26635;-35.248;149.138;2023-05-29T09:47:33;2.33;;;0.60;;
39930;SDS011;26635;-35.248;149.138;2023-05-29T09:50:04;3.30;;;0.80;;
39930;SDS011;26635;-35.248;149.138;2023-05-29T09:52:36;2.70;;;0.60;;
39930;SDS011;26635;-35.248;149.138;2023-05-29T09:55:07;2.97;;;1.27;;
39930;SDS011;26635;-35.248;149.138;2023-05-29T09:57:38;3.20;;;0.70;;
39930;SDS011;26635;-35.248;149.138;2023-05-29T10:00:09;2.33;;;0.60;;
39930;SDS011;26635;-35.248;149.138;2023-05-29T10:02:41;1.88;;;0.60;;
39930;SDS011;26635;-35.248;149.138;2023-05-29T10:05:12;2.40;;;0.90;;
39930;SDS011;26635;-35.248;149.138;2023-05-29T10:07:45;2.97;;;0.50;;
39930;SDS011;26635;-35.248;149.138;2023-05-29T10:10:20;2.50;;;0.80;;
39930;SDS011;26635;-35.248;149.138;2023-05-29T10:12:56;2.47;;;0.43;;
39930;SDS011;26635;-35.248;149.138;2023-05-29T10:15:26;3.10;;;0.63;;
39930;SDS011;26635;-35.248;149.138;2023-05-29T10:18:01;2.33;;;0.50;;
39930;SDS011;26635;-35.248;149.138;2023-05-29T10:20:34;1.75;;;0.40;;
39930;SDS011;26635;-35.248;149.138;2023-05-29T10:23:05;7.47;;;0.60;;
39930;SDS011;26635;-35.248;149.138;2023-05-29T10:25:37;2.28;;;0.80;;
39930;SDS011;26635;-35.248;149.138;2023-05-29T10:28:10;4.38;;;0.85;;
39930;SDS011;26635;-35.248;149.138;2023-05-29T10:30:45;2.80;;;0.50;;
39930;SDS011;26635;-35.248;149.138;2023-05-29T10:36:21;8.88;;;2.05;;
39930;SDS011;26635;-35.248;149.138;2023-05-29T10:38:55;2.75;;;1.17;;
39930;SDS011;26635;-35.248;149.138;2023-05-29T10:43:59;4.47;;;1.05;;
39930;SDS011;26635;-35.248;149.138;2023-05-29T10:51:48;3.08;;;0.95;;
39930;SDS011;26635;-35.248;149.138;2023-05-29T10:54:22;5.88;;;2.42;;
39930;SDS011;26635;-35.248;149.138;2023-05-29T10:56:58;3.58;;;0.90;;
39930;SDS011;26635;-35.248;149.138;2023-05-29T10:59:34;2.88;;;1.38;;
39930;SDS011;26635;-35.248;149.138;2023-05-29T11:02:06;3.28;;;1.10;;
39930;SDS011;26635;-35.248;149.138;2023-05-29T11:04:38;3.63;;;1.00;;
39930;SDS011;26635;-35.248;149.138;2023-05-29T11:07:31;4.30;;;1.27;;
39930;SDS011;26635;-35.248;149.138;2023-05-29T11:10:13;3.38;;;1.17;;
39930;SDS011;26635;-35.248;149.138;2023-05-29T11:12:56;4.47;;;0.70;;
39930;SDS011;26635;-35.248;149.138;2023-05-29T11:15:28;2.25;;;0.68;;
39930;SDS011;26635;-35.248;149.138;2023-05-29T11:18:08;4.95;;;0.68;;
39930;SDS011;26635;-35.248;149.138;2023-05-29T11:20:43;3.55;;;0.30;;
39930;SDS011;26635;-35.248;149.138;2023-05-29T11:23:22;2.95;;;1.48;;
39930;SDS011;26635;-35.248;149.138;2023-05-29T11:25:58;3.83;;;1.15;;
39930;SDS011;26635;-35.248;149.138;2023-05-29T11:28:30;2.13;;;0.40;;
39930;SDS011;26635;-35.248;149.138;2023-05-29T11:31:01;1.55;;;0.73;;
39930;SDS011;26635;-35.248;149.138;2023-05-29T11:33:40;5.15;;;0.60;;
39930;SDS011;26635;-35.248;149.138;2023-05-29T11:36:19;4.60;;;1.13;;
39930;SDS011;26635;-35.248;149.138;2023-05-29T11:38:51;3.38;;;0.50;;
39930;SDS011;26635;-35.248;149.138;2023-05-29T11:41:22;1.83;;;0.52;;
39930;SDS011;26635;-35.248;149.138;2023-05-29T11:44:02;3.92;;;0.65;;
39930;SDS011;26635;-35.248;149.138;2023-05-29T11:46:37;2.63;;;0.60;;
39930;SDS011;26635;-35.248;149.138;2023-05-29T11:49:10;3.17;;;0.68;;
39930;SDS011;26635;-35.248;149.138;2023-05-29T11:51:41;1.45;;;0.43;;
39930;SDS011;26635;-35.248;149.138;2023-05-29T11:54:12;2.85;;;0.45;;
39930;SDS011;26635;-35.248;149.138;2023-05-29T11:56:44;3.35;;;1.02;;
39930;SDS011;26635;-35.248;149.138;2023-05-29T11:59:19;7.93;;;1.35;;
39930;SDS011;26635;-35.248;149.138;2023-05-29T12:01:49;2.88;;;0.50;;
39930;SDS011;26635;-35.248;149.138;2023-05-29T12:04:22;2.10;;;0.22;;
39930;SDS011;26635;-35.248;149.138;2023-05-29T12:06:54;2.17;;;0.85;;
39930;SDS011;26635;-35.248;149.138;2023-05-29T12:09:27;2.78;;;1.05;;
39930;SDS011;26635;-35.248;149.138;2023-05-29T12:12:02;2.10;;;0.40;;
39930;SDS011;26635;-35.248;149.138;2023-05-29T12:14:37;1.55;;;0.25;;
39930;SDS011;26635;-35.248;149.138;2023-05-29T12:17:09;1.38;;;0.40;;
39930;SDS011;26635;-35.248;149.138;2023-05-29T12:19:41;3.55;;;1.23;;
39930;SDS011;26635;-35.248;149.138;2023-05-29T12:22:13;0.95;;;0.47;;
39930;SDS011;26635;-35.248;149.138;2023-05-29T12:24:44;2.00;;;0.50;;
39930;SDS011;26635;-35.248;149.138;2023-05-29T12:27:16;3.60;;;0.68;;
39930;SDS011;26635;-35.248;149.138;2023-05-29T12:29:48;2.97;;;0.85;;
39930;SDS011;26635;-35.248;149.138;2023-05-29T12:32:20;1.92;;;0.47;;
39930;SDS011;26635;-35.248;149.138;2023-05-29T12:34:52;2.13;;;0.77;;
39930;SDS011;26635;-35.248;149.138;2023-05-29T12:37:22;1.52;;;0.73;;
39930;SDS011;26635;-35.248;149.138;2023-05-29T12:42:55;2.17;;;0.45;;
39930;SDS011;26635;-35.248;149.138;2023-05-29T12:45:29;1.40;;;0.52;;
39930;SDS011;26635;-35.248;149.138;2023-05-29T12:48:03;2.55;;;0.40;;
39930;SDS011;26635;-35.248;149.138;2023-05-29T12:50:35;2.50;;;0.40;;
39930;SDS011;26635;-35.248;149.138;2023-05-29T12:53:12;1.55;;;0.50;;
39930;SDS011;26635;-35.248;149.138;2023-05-29T12:55:48;2.33;;;0.30;;
39930;SDS011;26635;-35.248;149.138;2023-05-29T12:58:19;3.40;;;0.40;;
39930;SDS011;26635;-35.248;149.138;2023-05-29T13:00:52;1.13;;;0.45;;
39930;SDS011;26635;-35.248;149.138;2023-05-29T13:03:27;2.67;;;0.65;;
39930;SDS011;26635;-35.248;149.138;2023-05-29T13:05:59;1.65;;;0.50;;
39930;SDS011;26635;-35.248;149.138;2023-05-29T13:08:31;5.20;;;0.90;;
39930;SDS011;26635;-35.248;149.138;2023-05-29T13:11:02;2.40;;;0.70;;
39930;SDS011;26635;-35.248;149.138;2023-05-29T13:13:33;4.95;;;0.70;;
39930;SDS011;26635;-35.248;149.138;2023-05-29T13:16:05;2.40;;;0.85;;
39930;SDS011;26635;-35.248;149.138;2023-05-29T13:18:37;1.60;;;0.47;;
39930;SDS011;26635;-35.248;149.138;2023-05-29T13:21:11;3.80;;;0.70;;
39930;SDS011;26635;-35.248;149.138;2023-05-29T13:23:43;1.98;;;0.55;;
39930;SDS011;26635;-35.248;149.138;2023-05-29T13:26:14;3.35;;;0.90;;
39930;SDS011;26635;-35.248;149.138;2023-05-29T13:28:48;2.35;;;1.10;;
39930;SDS011;26635;-35.248;149.138;2023-05-29T13:31:21;2.92;;;1.08;;
39930;SDS011;26635;-35.248;149.138;2023-05-29T13:33:52;2.50;;;0.80;;
39930;SDS011;26635;-35.248;149.138;2023-05-29T13:36:24;5.72;;;1.00;;
39930;SDS011;26635;-35.248;149.138;2023-05-29T13:38:56;3.55;;;1.70;;
39930;SDS011;26635;-35.248;149.138;2023-05-29T13:41:28;5.25;;;1.83;;
39930;SDS011;26635;-35.248;149.138;2023-05-29T13:44:01;4.47;;;1.30;;
39930;SDS011;26635;-35.248;149.138;2023-05-29T13:46:35;4.03;;;1.00;;
39930;SDS011;26635;-35.248;149.138;2023-05-29T13:49:09;3.10;;;0.82;;
39930;SDS011;26635;-35.248;149.138;2023-05-29T13:51:41;2.85;;;0.90;;
39930;SDS011;26635;-35.248;149.138;2023-05-29T13:54:16;3.25;;;1.30;;
39930;SDS011;26635;-35.248;149.138;2023-05-29T13:56:48;3.92;;;1.45;;
39930;SDS011;26635;-35.248;149.138;2023-05-29T13:59:22;3.53;;;0.80;;
39930;SDS011;26635;-35.248;149.138;2023-05-29T14:01:53;2.40;;;0.80;;
39930;SDS011;26635;-35.248;149.138;2023-05-29T14:04:24;3.63;;;0.95;;
39930;SDS011;26635;-35.248;149.138;2023-05-29T14:06:57;3.15;;;0.60;;
39930;SDS011;26635;-35.248;149.138;2023-05-29T14:09:29;2.45;;;0.70;;
39930;SDS011;26635;-35.248;149.138;2023-05-29T14:12:01;3.65;;;0.60;;
39930;SDS011;26635;-35.248;149.138;2023-05-29T14:14:33;3.75;;;0.50;;
39930;SDS011;26635;-35.248;149.138;2023-05-29T14:17:04;4.35;;;1.30;;
39930;SDS011;26635;-35.248;149.138;2023-05-29T14:19:35;2.03;;;0.70;;
39930;SDS011;26635;-35.248;149.138;2023-05-29T14:22:07;1.75;;;0.93;;
39930;SDS011;26635;-35.248;149.138;2023-05-29T14:24:39;3.33;;;0.90;;
39930;SDS011;26635;-35.248;149.138;2023-05-29T14:27:13;8.05;;;3.38;;
39930;SDS011;26635;-35.248;149.138;2023-05-29T14:29:46;6.43;;;2.42;;
39930;SDS011;26635;-35.248;149.138;2023-05-29T14:32:20;3.25;;;0.85;;
39930;SDS011;26635;-35.248;149.138;2023-05-29T14:34:52;3.85;;;0.80;;
39930;SDS011;26635;-35.248;149.138;2023-05-29T14:37:28;2.08;;;0.63;;
39930;SDS011;26635;-35.248;149.138;2023-05-29T14:39:59;2.92;;;0.80;;
39930;SDS011;26635;-35.248;149.138;2023-05-29T14:42:50;4.50;;;1.38;;
39930;SDS011;26635;-35.248;149.138;2023-05-29T14:45:41;1.85;;;0.68;;
39930;SDS011;26635;-35.248;149.138;2023-05-29T14:48:32;2.25;;;0.55;;
39930;SDS011;26635;-35.248;149.138;2023-05-29T14:51:10;1.20;;;0.45;;
39930;SDS011;26635;-35.248;149.138;2023-05-29T14:53:41;1.10;;;0.30;;
39930;SDS011;26635;-35.248;149.138;2023-05-29T14:56:13;1.27;;;0.55;;
39930;SDS011;26635;-35.248;149.138;2023-05-29T14:58:45;2.65;;;0.82;;
39930;SDS011;26635;-35.248;149.138;2023-05-29T15:01:20;1.15;;;0.40;;
39930;SDS011;26635;-35.248;149.138;2023-05-29T15:03:52;4.13;;;0.70;;
39930;SDS011;26635;-35.248;149.138;2023-05-29T15:06:24;1.55;;;0.50;;